ADDS METAR Data INFO
IDs: Format: Raw Decoded Include TAF

Data at: 0701 UTC 19 Oct 2017

KFMM 190655Z AUTO 02005KT 10SM CLR 05/M05 A3012 RMK AO2 T00501047
KFMM 190635Z AUTO 04005KT 10SM CLR 06/M05 A3012 RMK AO2 T00551052
KFMM 190615Z AUTO 06004KT 10SM CLR 07/M06 A3012 RMK AO2 T00701056
KFMM 190555Z AUTO 12003KT 10SM CLR 09/M06 A3012 RMK AO2 T00871062 10164 20080 402660050
KFMM 190535Z AUTO 15004KT 10SM CLR 09/M06 A3012 RMK AO2 T00901057
KFMM 190515Z AUTO 16003KT 10SM CLR 09/M05 A3013 RMK AO2 T00901050
KFMM 190455Z AUTO 17003KT 10SM CLR 09/M05 A3013 RMK AO2 T00901046
KFMM 190435Z AUTO 14006KT 10SM CLR 11/M04 A3013 RMK AO2 T01071045
KFMM 190415Z AUTO 12004KT 10SM CLR 09/M05 A3013 RMK AO2 T00921051
KFMM 190355Z AUTO 10005KT 10SM CLR 09/M05 A3013 RMK AO2 T00891048
KFMM 190335Z AUTO 09006KT 10SM CLR 08/M06 A3013 RMK AO2 T00801056
KFMM 190315Z AUTO 09006KT 10SM CLR 08/M06 A3013 RMK AO2 T00831060
KFMM 190255Z AUTO 09007KT 10SM CLR 10/M06 A3013 RMK AO2 T01041061
KFMM 190235Z AUTO 08008KT 10SM CLR 10/M06 A3013 RMK AO2 T01011061
KFMM 190215Z AUTO 08008KT 10SM CLR 11/M06 A3012 RMK AO2 T01061061
KFMM 190155Z AUTO 09009KT 10SM CLR 09/M06 A3012 RMK AO2 T00901061
KFMM 190135Z AUTO 07009KT 10SM CLR 11/M06 A3012 RMK AO2 T01071062
KFMM 190115Z AUTO 07008KT 10SM CLR 11/M06 A3012 RMK AO2 T01101065
KFMM 190055Z AUTO 06009KT 10SM CLR 12/M07 A3011 RMK AO2 T01161066
KFMM 190035Z AUTO 06008KT 10SM CLR 13/M07 A3011 RMK AO2 T01261067
KFMM 190015Z AUTO 07007KT 10SM CLR 15/M07 A3011 RMK AO2 T01451066
KFMM 182355Z AUTO 07008KT 10SM CLR 17/M06 A3011 RMK AO2 T01731065 10266 20173
KFMM 182335Z AUTO 07009KT 10SM CLR 20/M07 A3010 RMK AO2 T01991070
KFMM 182315Z AUTO 07009KT 10SM CLR 22/M08 A3010 RMK AO2 T02151078
KFMM 182255Z AUTO 07013KT 10SM CLR 23/M08 A3010 RMK AO2 T02261084
KFMM 182235Z AUTO 04003KT 10SM CLR 26/M12 A3009 RMK AO2 T02571118
KFMM 182215Z AUTO 03004KT 10SM CLR 26/M12 A3009 RMK AO2 T02591119
KFMM 182155Z AUTO 35005KT 10SM CLR 27/M11 A3009 RMK AO2 T02651115
KFMM 182135Z AUTO 00000KT 10SM CLR 26/M12 A3009 RMK AO2 T02621122
KFMM 182115Z AUTO 00000KT 10SM CLR 26/M12 A3009 RMK AO2 T02611123
KFMM 182055Z AUTO 35007KT 10SM CLR 27/M12 A3009 RMK AO2 T02651117
KFMM 182035Z AUTO 35008KT 7SM CLR 27/M12 A3009 RMK AO2 T02651117
KFMM 182015Z AUTO 34005KT 10SM CLR 27/M12 A3009 RMK AO2 T02651122
KFMM 181955Z AUTO 32007KT 10SM CLR 26/M11 A3010 RMK AO2 T02621114
KFMM 181935Z AUTO 35010G15KT 10SM CLR 26/M11 A3011 RMK AO2 T02611110
KFMM 181915Z AUTO 29004G18KT 10SM CLR 26/M12 A3011 RMK AO2 T02621117
KFMM 181855Z AUTO 33005G17KT 10SM CLR 26/M12 A3012 RMK AO2 T02611120
KFMM 181835Z AUTO 31009G17KT 10SM CLR 26/M12 A3013 RMK AO2 T02601123
KFMM 181815Z AUTO 32014G20KT 10SM CLR 26/M12 A3013 RMK AO2 T02591123
KFMM 181755Z AUTO 32013G20KT 10SM CLR 26/M12 A3014 RMK AO2 T02601124 10260 20050
KFMM 181735Z AUTO 31014G20KT 10SM CLR 26/M13 A3013 RMK AO2 T02581126
KFMM 181715Z AUTO 29019G23KT 10SM CLR 25/M12 A3014 RMK AO2 T02511123
KFMM 181655Z AUTO 30020G27KT 10SM CLR 25/M13 A3014 RMK AO2 T02461126
KFMM 181635Z AUTO 29017G22KT 10SM CLR 24/M10 A3014 RMK AO2 T02361099
KFMM 181615Z AUTO 22004KT 10SM CLR 19/M02 A3014 RMK AO2 T01901019
KFMM 181555Z AUTO 26006KT 10SM CLR 16/M02 A3013 RMK AO2 T01581025
KFMM 181535Z AUTO 25006KT 10SM CLR 11/00 A3012 RMK AO2 T01050000
KFMM 181515Z AUTO 23005KT 10SM CLR 08/00 A3012 RMK AO2 T00761004
KFMM 181455Z AUTO 25006KT 10SM CLR 06/M01 A3011 RMK AO2 T00561009
KFMM 181435Z AUTO 26007KT 10SM CLR 06/M01 A3010 RMK AO2 T00631011
KFMM 181415Z AUTO 27007KT 10SM CLR 06/M01 A3010 RMK AO2 T00601012
KFMM 181355Z AUTO 27007KT 10SM CLR 05/M02 A3010 RMK AO2 T00511018
KFMM 181335Z AUTO 27004KT 10SM CLR 08/M04 A3008 RMK AO2 T00761037
KFMM 181315Z AUTO 31004KT 10SM CLR 07/M04 A3007 RMK AO2 T00741038
KFMM 181255Z AUTO 29007KT 10SM CLR 06/M03 A3006 RMK AO2 T00561027
KFMM 181235Z AUTO 26008KT 10SM CLR 07/M03 A3004 RMK AO2 T00651031
KFMM 181215Z AUTO 27006KT 10SM CLR 07/M04 A3005 RMK AO2 T00711037
KFMM 181155Z AUTO 26007KT 10SM CLR 10/M05 A3004 RMK AO2 T00951049 10100 20060
KFMM 181135Z AUTO 28010KT 10SM CLR 10/M05 A3004 RMK AO2 T00971053
KFMM 181115Z AUTO 27008KT 10SM CLR 09/M05 A3003 RMK AO2 T00941050
KFMM 181055Z AUTO 26007KT 10SM CLR 09/M05 A3003 RMK AO2 T00861047
KFMM 181035Z AUTO 27007KT 10SM CLR 09/M06 A3002 RMK AO2 T00911056
KFMM 181015Z AUTO 27004KT 10SM CLR 09/M05 A3002 RMK AO2 T00881053
KFMM 180955Z AUTO 29010KT 10SM CLR 09/M05 A3001 RMK AO2 T00921051
KFMM 180935Z AUTO 28007KT 10SM CLR 08/M05 A3001 RMK AO2 T00751050
KFMM 180915Z AUTO 29009KT 10SM CLR 08/M05 A3001 RMK AO2 T00751051
KFMM 180855Z AUTO 27006KT 10SM CLR 07/M05 A3002 RMK AO2 T00691055
KFMM 180835Z AUTO 26006KT 10SM CLR 07/M06 A3002 RMK AO2 T00671057
KFMM 180815Z AUTO 26007KT 10SM CLR 06/M05 A3003 RMK AO2 T00621048
KFMM 180755Z AUTO 26009KT 10SM CLR 07/M05 A3003 RMK AO2 T00661051
KFMM 180735Z AUTO 27009KT 10SM CLR 07/M05 A3003 RMK AO2 T00691053
KFMM 180715Z AUTO 26007KT 10SM CLR 07/M06 A3003 RMK AO2 T00651056
KFMM 180655Z AUTO 25007KT 10SM CLR 07/M06 A3003 RMK AO2 T00661056
KFMM 180635Z AUTO 26008KT 10SM CLR 07/M06 A3003 RMK AO2 T00711060
KFMM 180615Z AUTO 24006KT 10SM CLR 07/M06 A3004 RMK AO2 T00671065
KFMM 180555Z AUTO 26007KT 10SM CLR 07/M06 A3004 RMK AO2 T00701065 10217 20054 402681015
KFMM 180535Z AUTO 26008KT 10SM CLR 06/M07 A3004 RMK AO2 T00611067
KFMM 180515Z AUTO 25008KT 10SM CLR 07/M08 A3004 RMK AO2 T00731079
KFMM 180455Z AUTO 24006KT 10SM CLR 09/M09 A3004 RMK AO2 T00911087
KFMM 180435Z AUTO 27008KT 10SM CLR 09/M09 A3005 RMK AO2 T00901093
KFMM 180415Z AUTO 25006KT 10SM CLR 09/M10 A3006 RMK AO2 T00941100
KFMM 180355Z AUTO 26006KT 10SM CLR 11/M10 A3005 RMK AO2 T01061103
KFMM 180335Z AUTO 27006KT 10SM CLR 13/M12 A3005 RMK AO2 T01291120
KFMM 180315Z AUTO 28005KT 10SM CLR 12/M13 A3005 RMK AO2 T01201128
KFMM 180255Z AUTO 26003KT 10SM CLR 16/M14 A3005 RMK AO2 T01601136
KFMM 180235Z AUTO 00000KT 10SM CLR 17/M14 A3004 RMK AO2 T01681140
KFMM 180215Z AUTO 00000KT 10SM CLR 18/M14 A3005 RMK AO2 T01751140
KFMM 180155Z AUTO 21003KT 10SM CLR 18/M14 A3006 RMK AO2 T01811136
KFMM 180135Z AUTO 00000KT 10SM CLR 18/M14 A3006 RMK AO2 T01831136
KFMM 180115Z AUTO 00000KT 10SM CLR 19/M13 A3006 RMK AO2 T01891135
KFMM 180055Z AUTO 18003KT 10SM CLR 19/M13 A3006 RMK AO2 T01921131
KFMM 180035Z AUTO 00000KT 10SM CLR 19/M12 A3005 RMK AO2 T01911123
KFMM 180015Z AUTO 22003KT 10SM CLR 20/M11 A3006 RMK AO2 T01961113
KFMM 172355Z AUTO 22003KT 10SM CLR 22/M11 A3006 RMK AO2 T02161108 10268 20211
KFMM 172335Z AUTO 21003KT 10SM CLR 23/M10 A3006 RMK AO2 T02301100
KFMM 172315Z AUTO 24003KT 10SM CLR 24/M11 A3006 RMK AO2 T02351114
KFMM 172255Z AUTO 23004KT 10SM CLR 25/M13 A3006 RMK AO2 T02451132
KFMM 172235Z AUTO 23005KT 10SM CLR 26/M14 A3007 RMK AO2 T02551144
KFMM 172215Z AUTO 22004KT 10SM CLR 26/M13 A3007 RMK AO2 T02621135
KFMM 172155Z AUTO 26005KT 10SM CLR 26/M13 A3007 RMK AO2 T02631133
KFMM 172135Z AUTO 23009KT 10SM CLR 27/M13 A3008 RMK AO2 T02661128
KFMM 172115Z AUTO 23009KT 10SM CLR 27/M12 A3008 RMK AO2 T02651123
KFMM 172055Z AUTO 25007KT 10SM CLR 27/M12 A3009 RMK AO2 T02661124
KFMM 172035Z AUTO 22003KT 10SM CLR 27/M12 A3009 RMK AO2 T02651116
KFMM 172015Z AUTO 23006KT 10SM CLR 27/M13 A3010 RMK AO2 T02651130
KFMM 171955Z AUTO 21005KT 10SM CLR 26/M11 A3011 RMK AO2 T02621112
KFMM 171935Z AUTO 21003KT 10SM CLR 26/M10 A3012 RMK AO2 T02601098
KFMM 171915Z AUTO 22005KT 10SM CLR 25/M10 A3014 RMK AO2 T02541099